createdAt,value
2023-05-08T00:02:14.089Z,7.37
2023-05-08T00:04:40.891Z,7.29
2023-05-08T00:07:08.728Z,7.24
2023-05-08T00:09:35.900Z,7.18
2023-05-08T00:12:02.630Z,7.12
2023-05-08T00:14:29.412Z,7.05
2023-05-08T00:16:56.127Z,6.94
2023-05-08T00:19:23.512Z,6.92
2023-05-08T00:21:53.398Z,6.85
2023-05-08T00:24:20.378Z,6.82
2023-05-08T00:26:47.442Z,6.90
2023-05-08T00:29:21.551Z,6.80
2023-05-08T00:31:50.500Z,6.80
2023-05-08T00:34:17.528Z,6.69
2023-05-08T00:36:44.517Z,6.60
2023-05-08T00:39:11.461Z,6.53
2023-05-08T00:41:41.227Z,6.51
2023-05-08T00:44:12.426Z,6.46
2023-05-08T00:46:43.169Z,6.45
2023-05-08T00:49:13.443Z,6.44
2023-05-08T00:51:45.376Z,6.38
2023-05-08T00:54:16.332Z,6.36
2023-05-08T00:56:43.910Z,6.41
2023-05-08T00:59:14.294Z,6.38
2023-05-08T01:01:41.534Z,6.42
2023-05-08T01:04:08.445Z,6.41
2023-05-08T01:06:36.893Z,6.37
2023-05-08T01:09:04.436Z,6.38
2023-05-08T01:11:41.484Z,6.35
2023-05-08T01:14:22.710Z,6.40
2023-05-08T01:17:14.029Z,6.36
2023-05-08T01:19:56.966Z,6.43
2023-05-08T01:22:33.291Z,6.39
2023-05-08T01:25:18.549Z,6.40
2023-05-08T01:28:36.797Z,6.46
2023-05-08T01:31:46.771Z,6.41
2023-05-08T01:34:35.743Z,6.40
2023-05-08T01:37:17.604Z,6.47
2023-05-08T01:40:02.012Z,6.44
2023-05-08T01:42:29.847Z,6.43
2023-05-08T01:45:02.610Z,6.54
2023-05-08T01:47:33.643Z,6.47
2023-05-08T01:50:16.893Z,6.47
2023-05-08T01:52:51.494Z,6.46
2023-05-08T01:55:24.978Z,6.44
2023-05-08T01:57:55.779Z,6.45
2023-05-08T02:00:29.882Z,6.44
2023-05-08T02:03:05.544Z,6.45
2023-05-08T02:05:38.209Z,6.42
2023-05-08T02:08:06.952Z,6.49
2023-05-08T02:10:35.770Z,6.51
2023-05-08T02:13:04.505Z,6.49
2023-05-08T02:15:36.107Z,6.45
2023-05-08T02:18:08.592Z,6.45
2023-05-08T02:20:36.969Z,6.41
2023-05-08T02:23:04.806Z,6.37
2023-05-08T02:25:32.798Z,6.28
2023-05-08T02:28:00.768Z,6.24
2023-05-08T02:30:29.401Z,6.25
2023-05-08T02:33:00.564Z,6.32
2023-05-08T02:35:31.294Z,6.21
2023-05-08T02:37:59.298Z,6.19
2023-05-08T02:40:35.539Z,6.16
2023-05-08T02:43:07.109Z,6.14
2023-05-08T02:45:47.979Z,6.10
2023-05-08T02:48:52.617Z,6.09
2023-05-08T02:51:44.685Z,6.17
2023-05-08T02:54:20.175Z,6.16
2023-05-08T02:56:59.265Z,6.21
2023-05-08T02:59:37.308Z,6.25
2023-05-08T03:02:12.606Z,6.36
2023-05-08T03:04:50.394Z,6.28
2023-05-08T03:07:22.001Z,6.30
2023-05-08T03:09:55.387Z,6.28
2023-05-08T03:12:26.801Z,6.31
2023-05-08T03:15:18.005Z,6.40
2023-05-08T03:17:47.566Z,6.42
2023-05-08T03:20:18.308Z,6.43
2023-05-08T03:22:46.855Z,6.44
2023-05-08T03:25:17.740Z,6.43
2023-05-08T03:27:45.853Z,6.42
2023-05-08T03:30:14.478Z,6.36
2023-05-08T03:32:46.503Z,6.40
2023-05-08T03:35:17.311Z,6.43
2023-05-08T03:37:47.841Z,6.38
2023-05-08T03:40:15.352Z,6.36
2023-05-08T03:42:44.560Z,6.41
2023-05-08T03:45:14.343Z,6.42
2023-05-08T03:47:42.551Z,6.43
2023-05-08T03:50:14.302Z,6.42
2023-05-08T03:52:41.398Z,6.38
2023-05-08T03:55:09.643Z,6.53
2023-05-08T03:57:45.788Z,6.44
2023-05-08T04:00:57.717Z,6.45
2023-05-08T04:04:02.580Z,6.51
2023-05-08T04:06:48.707Z,6.53
2023-05-08T04:09:24.945Z,6.59
2023-05-08T04:12:12.830Z,6.56
2023-05-08T04:14:57.044Z,6.65
2023-05-08T04:17:48.090Z,6.56
2023-05-08T04:20:21.030Z,6.64
2023-05-08T04:22:59.700Z,6.52
2023-05-08T04:25:32.419Z,6.54
2023-05-08T04:28:00.492Z,6.67
2023-05-08T04:30:28.855Z,6.58
2023-05-08T04:32:56.579Z,6.69
2023-05-08T04:35:23.857Z,6.73
2023-05-08T04:37:51.651Z,6.73
2023-05-08T04:40:18.371Z,6.75
2023-05-08T04:42:47.896Z,6.74
2023-05-08T04:45:18.977Z,6.72
2023-05-08T04:47:46.230Z,6.68
2023-05-08T04:50:14.074Z,6.62
2023-05-08T04:52:47.180Z,6.60
2023-05-08T04:55:14.758Z,6.63
2023-05-08T04:57:44.858Z,6.79
2023-05-08T05:00:18.407Z,6.73
2023-05-08T05:02:46.808Z,6.72
2023-05-08T05:05:13.732Z,6.72
2023-05-08T05:07:41.552Z,6.67
2023-05-08T05:10:09.058Z,6.74
2023-05-08T05:12:52.479Z,6.63
2023-05-08T05:15:20.304Z,6.64
2023-05-08T05:17:48.295Z,6.62
2023-05-08T05:20:17.947Z,6.65
2023-05-08T05:22:44.810Z,6.61
2023-05-08T05:25:13.089Z,6.61
2023-05-08T05:27:39.980Z,6.62
2023-05-08T05:30:08.450Z,6.62
2023-05-08T05:32:40.029Z,6.67
2023-05-08T05:35:08.391Z,6.70
2023-05-08T05:37:36.134Z,6.63
2023-05-08T05:40:06.707Z,6.55
2023-05-08T05:42:34.994Z,6.61
2023-05-08T05:45:06.839Z,6.64
2023-05-08T05:47:34.755Z,6.77
2023-05-08T05:50:06.120Z,6.78
2023-05-08T05:52:34.320Z,6.83
2023-05-08T05:55:07.889Z,6.80
2023-05-08T05:57:36.728Z,6.73
2023-05-08T06:00:05.143Z,6.93
2023-05-08T06:02:42.006Z,6.95
2023-05-08T06:05:11.254Z,7.02
2023-05-08T06:07:38.429Z,7.00
2023-05-08T06:10:05.954Z,7.10
2023-05-08T06:12:32.749Z,7.17
2023-05-08T06:15:00.450Z,6.96
2023-05-08T06:17:27.516Z,7.06
2023-05-08T06:19:56.618Z,7.09
2023-05-08T06:22:24.514Z,7.01
2023-05-08T06:24:53.591Z,7.09
2023-05-08T06:27:21.381Z,6.96
2023-05-08T06:29:51.671Z,7.08
2023-05-08T06:32:19.279Z,7.03
2023-05-08T06:34:46.294Z,7.11
2023-05-08T06:37:12.994Z,7.20
2023-05-08T06:39:39.787Z,7.20
2023-05-08T06:42:08.184Z,7.33
2023-05-08T06:44:38.848Z,7.37
2023-05-08T06:47:05.665Z,7.18
2023-05-08T06:49:32.585Z,7.23
2023-05-08T06:51:59.296Z,7.19
2023-05-08T06:54:26.039Z,7.20
2023-05-08T06:56:54.286Z,7.12
2023-05-08T06:59:23.392Z,7.00
2023-05-08T07:01:50.811Z,7.21
2023-05-08T07:04:17.773Z,7.21
2023-05-08T07:06:44.556Z,7.19
2023-05-08T07:09:12.114Z,7.28
2023-05-08T07:11:39.007Z,7.37
2023-05-08T07:14:05.692Z,7.41
2023-05-08T07:16:32.601Z,7.57
2023-05-08T07:18:59.646Z,7.36
2023-05-08T07:21:26.587Z,7.43
2023-05-08T07:23:53.987Z,7.56
2023-05-08T07:26:21.680Z,7.67
2023-05-08T07:28:50.839Z,7.67
2023-05-08T07:31:19.710Z,7.83
2023-05-08T07:33:47.109Z,7.49
2023-05-08T07:36:14.082Z,7.36
2023-05-08T07:38:40.859Z,7.46
2023-05-08T07:41:08.247Z,7.38
2023-05-08T07:43:35.093Z,7.39
2023-05-08T07:46:01.736Z,7.36
2023-05-08T07:48:28.474Z,7.24
2023-05-08T07:50:55.179Z,7.17
2023-05-08T07:53:21.990Z,7.20
2023-05-08T07:55:48.719Z,7.27
2023-05-08T07:58:15.561Z,7.24
2023-05-08T08:00:42.294Z,7.28
2023-05-08T08:03:09.103Z,7.65
2023-05-08T08:05:36.224Z,7.52
2023-05-08T08:08:04.473Z,7.34
2023-05-08T08:10:31.597Z,7.58
2023-05-08T08:12:58.411Z,7.77
2023-05-08T08:15:25.134Z,7.50
2023-05-08T08:17:52.206Z,7.65
2023-05-08T08:20:19.330Z,7.56
2023-05-08T08:22:46.462Z,7.60
2023-05-08T08:25:13.874Z,7.68
2023-05-08T08:27:40.736Z,7.47
2023-05-08T08:30:16.911Z,7.37
2023-05-08T08:32:44.791Z,7.50
2023-05-08T08:35:12.037Z,7.46
2023-05-08T08:37:39.117Z,7.46
2023-05-08T08:40:06.711Z,7.34
2023-05-08T08:42:33.787Z,7.58
2023-05-08T08:45:01.794Z,7.46
2023-05-08T08:47:30.121Z,7.40
2023-05-08T08:50:02.664Z,7.57
2023-05-08T08:52:41.331Z,7.59
2023-05-08T08:55:12.731Z,7.66
2023-05-08T08:57:52.831Z,7.49
2023-05-08T09:00:22.483Z,7.71
2023-05-08T09:02:49.441Z,7.97
2023-05-08T09:05:16.810Z,8.02
2023-05-08T09:07:44.151Z,8.14
2023-05-08T09:10:15.475Z,8.12
2023-05-08T09:12:42.988Z,8.07
2023-05-08T09:15:10.395Z,7.99
2023-05-08T09:17:37.414Z,8.36
2023-05-08T09:20:04.899Z,8.31
2023-05-08T09:22:32.570Z,8.32
2023-05-08T09:25:01.099Z,8.37
2023-05-08T09:27:29.074Z,8.80
2023-05-08T09:30:07.722Z,8.96
2023-05-08T09:32:42.204Z,8.75
2023-05-08T09:35:10.076Z,8.57
2023-05-08T09:37:44.165Z,8.77
2023-05-08T09:40:20.959Z,8.78
2023-05-08T09:42:50.023Z,8.66
2023-05-08T09:45:28.611Z,8.82
2023-05-08T09:47:55.624Z,8.84
2023-05-08T09:50:22.673Z,8.69
2023-05-08T09:52:50.536Z,8.48
2023-05-08T09:55:18.212Z,8.52
2023-05-08T09:57:59.749Z,8.71
2023-05-08T10:00:28.435Z,9.21
2023-05-08T10:03:02.200Z,9.04
2023-05-08T10:05:34.668Z,9.28
2023-05-08T10:08:21.604Z,9.75
2023-05-08T10:10:48.634Z,9.41
2023-05-08T10:13:15.902Z,9.34
2023-05-08T10:15:44.410Z,9.33
2023-05-08T10:18:14.782Z,9.60
2023-05-08T10:20:45.207Z,9.41
2023-05-08T10:23:15.750Z,9.35
2023-05-08T10:25:46.169Z,9.80
2023-05-08T10:28:32.549Z,9.73
2023-05-08T10:31:05.564Z,9.80
2023-05-08T10:33:35.141Z,10.04
2023-05-08T10:36:02.330Z,10.10
2023-05-08T10:38:30.946Z,10.46
2023-05-08T10:41:01.355Z,10.56
2023-05-08T10:43:30.456Z,10.46
2023-05-08T10:45:58.874Z,10.63
2023-05-08T10:48:37.431Z,10.28
2023-05-08T10:51:35.553Z,10.42
2023-05-08T10:54:19.461Z,10.67
2023-05-08T10:56:46.304Z,10.88
2023-05-08T10:59:19.985Z,10.79
2023-05-08T11:01:50.199Z,11.11
2023-05-08T11:04:22.482Z,10.90
2023-05-08T11:06:53.012Z,10.96
2023-05-08T11:09:27.899Z,10.45
2023-05-08T11:12:06.592Z,10.37
2023-05-08T11:14:36.111Z,10.29
2023-05-08T11:17:03.675Z,10.79
2023-05-08T11:19:30.879Z,10.50
2023-05-08T11:22:37.096Z,10.73
2023-05-08T11:25:05.566Z,11.02
2023-05-08T11:27:39.650Z,11.03
2023-05-08T11:30:22.789Z,11.18
2023-05-08T11:33:14.786Z,11.56
2023-05-08T11:35:52.178Z,11.69
2023-05-08T11:38:21.542Z,12.12
2023-05-08T11:40:58.408Z,11.54
2023-05-08T11:43:34.095Z,11.60
2023-05-08T11:46:14.036Z,11.70
2023-05-08T11:48:41.033Z,11.52
2023-05-08T11:51:07.907Z,11.88
2023-05-08T11:53:36.502Z,11.90
2023-05-08T11:56:03.689Z,11.70
2023-05-08T11:58:31.105Z,12.00
2023-05-08T12:00:58.271Z,12.02
2023-05-08T12:03:26.323Z,11.77
2023-05-08T12:05:56.796Z,11.87
2023-05-08T12:08:24.122Z,12.04
2023-05-08T12:10:53.913Z,11.89
2023-05-08T12:13:28.954Z,12.52
2023-05-08T12:15:56.989Z,12.37
2023-05-08T12:18:25.133Z,12.34
2023-05-08T12:20:53.454Z,12.61
2023-05-08T12:23:20.648Z,12.40
2023-05-08T12:25:47.846Z,12.23
2023-05-08T12:28:15.837Z,12.38
2023-05-08T12:30:42.726Z,12.32
2023-05-08T12:33:11.169Z,12.47
2023-05-08T12:35:38.735Z,13.04
2023-05-08T12:38:09.043Z,12.99
2023-05-08T12:40:42.933Z,12.67
2023-05-08T12:43:10.220Z,12.69
2023-05-08T12:45:40.039Z,12.84
2023-05-08T12:48:09.545Z,12.85
2023-05-08T12:50:41.485Z,12.71
2023-05-08T12:53:12.558Z,12.53
2023-05-08T12:55:40.893Z,12.80
2023-05-08T12:58:14.276Z,12.86
2023-05-08T13:00:44.439Z,12.81
2023-05-08T13:03:21.970Z,12.99
2023-05-08T13:05:49.183Z,12.99
2023-05-08T13:08:15.921Z,13.12
2023-05-08T13:10:53.842Z,12.88
2023-05-08T13:13:26.005Z,13.24
2023-05-08T13:15:54.935Z,13.36
2023-05-08T13:18:27.531Z,13.49
2023-05-08T13:20:56.373Z,13.77
2023-05-08T13:23:23.341Z,13.46
2023-05-08T13:25:51.244Z,13.27
2023-05-08T13:28:18.386Z,13.49
2023-05-08T13:30:45.100Z,13.53
2023-05-08T13:33:12.182Z,13.32
2023-05-08T13:35:39.063Z,13.23
2023-05-08T13:38:06.168Z,13.30
2023-05-08T13:40:33.257Z,13.52
2023-05-08T13:43:00.404Z,13.50
2023-05-08T13:45:27.351Z,13.40
2023-05-08T13:47:54.394Z,13.53
2023-05-08T13:50:22.212Z,13.61
2023-05-08T13:52:50.165Z,13.92
2023-05-08T13:55:19.925Z,13.60
2023-05-08T13:57:46.619Z,13.78
2023-05-08T14:00:15.457Z,13.99
2023-05-08T14:02:42.682Z,14.01
2023-05-08T14:05:09.697Z,13.98
2023-05-08T14:07:36.508Z,13.95
2023-05-08T14:10:03.679Z,14.00
2023-05-08T14:12:30.602Z,14.13
2023-05-08T14:14:57.380Z,13.84
2023-05-08T14:17:24.122Z,14.03
2023-05-08T14:19:50.833Z,14.20
2023-05-08T14:22:17.660Z,14.03
2023-05-08T14:24:44.505Z,14.12
2023-05-08T14:27:11.703Z,14.25
2023-05-08T14:29:38.666Z,14.19
2023-05-08T14:32:05.964Z,14.22
2023-05-08T14:34:32.872Z,14.43
2023-05-08T14:36:59.611Z,14.44
2023-05-08T14:39:26.332Z,14.32
2023-05-08T14:44:23.124Z,14.40
2023-05-08T14:46:49.957Z,14.57
2023-05-08T14:49:25.429Z,14.38
2023-05-08T14:51:55.767Z,14.39
2023-05-08T14:54:22.599Z,14.55
2023-05-08T14:56:49.621Z,14.65
2023-05-08T14:59:16.434Z,14.66
2023-05-08T15:01:43.254Z,14.63
2023-05-08T15:04:11.349Z,14.59
2023-05-08T15:06:40.468Z,14.71
2023-05-08T15:09:10.349Z,14.54
2023-05-08T15:11:37.505Z,14.45
2023-05-08T15:14:04.802Z,14.49
2023-05-08T15:16:31.599Z,14.45
2023-05-08T15:18:58.385Z,14.35
2023-05-08T15:21:26.898Z,14.45
2023-05-08T15:23:55.646Z,14.51
2023-05-08T15:26:23.171Z,14.59
2023-05-08T15:28:50.808Z,14.53
2023-05-08T15:31:19.451Z,14.50
2023-05-08T15:33:47.965Z,14.46
2023-05-08T15:36:15.181Z,14.42
2023-05-08T15:38:43.968Z,14.47
2023-05-08T15:41:15.345Z,14.42
2023-05-08T15:43:51.155Z,14.40
2023-05-08T15:46:19.551Z,14.44
2023-05-08T15:48:46.874Z,14.44
2023-05-08T15:51:14.178Z,14.47
2023-05-08T15:53:41.133Z,14.31
2023-05-08T15:56:07.884Z,14.35
2023-05-08T15:58:36.702Z,14.31
2023-05-08T16:01:05.240Z,14.44
2023-05-08T16:03:37.875Z,14.51
2023-05-08T16:06:04.826Z,14.33
2023-05-08T16:08:31.596Z,14.25
2023-05-08T16:10:58.473Z,14.25
2023-05-08T16:13:25.372Z,14.30
2023-05-08T16:15:52.326Z,14.26
2023-05-08T16:18:19.088Z,14.22
2023-05-08T16:20:46.872Z,14.14
2023-05-08T16:23:14.970Z,14.17
2023-05-08T16:25:41.638Z,14.13
2023-05-08T16:28:08.399Z,14.14
2023-05-08T16:30:35.204Z,14.00
2023-05-08T16:33:02.290Z,14.05
2023-05-08T16:35:29.685Z,14.01
2023-05-08T16:37:56.386Z,13.93
2023-05-08T16:40:23.060Z,13.80
2023-05-08T16:42:49.726Z,13.67
2023-05-08T16:45:16.459Z,13.70
2023-05-08T16:47:43.298Z,13.81
2023-05-08T16:50:10.826Z,13.59
2023-05-08T16:52:38.469Z,13.59
2023-05-08T16:55:05.666Z,13.52
2023-05-08T16:57:32.418Z,13.40
2023-05-08T16:59:59.157Z,13.38
2023-05-08T17:02:26.096Z,13.30
2023-05-08T17:04:52.880Z,13.21
2023-05-08T17:07:19.692Z,13.30
2023-05-08T17:09:49.240Z,13.17
2023-05-08T17:12:16.002Z,13.20
2023-05-08T17:14:42.846Z,13.15
2023-05-08T17:17:09.579Z,13.17
2023-05-08T17:19:36.255Z,13.15
2023-05-08T17:22:03.492Z,13.17
2023-05-08T17:24:30.863Z,13.09
2023-05-08T17:26:57.993Z,12.96
2023-05-08T17:29:24.953Z,12.87
2023-05-08T17:31:51.885Z,12.89
2023-05-08T17:34:18.653Z,12.87
2023-05-08T17:36:45.427Z,12.85
2023-05-08T17:39:12.574Z,12.90
2023-05-08T17:41:42.612Z,12.83
2023-05-08T17:44:09.355Z,12.79
2023-05-08T17:46:36.249Z,12.79
2023-05-08T17:49:03.213Z,12.75
2023-05-08T17:51:29.890Z,12.67
2023-05-08T17:53:56.710Z,12.72
2023-05-08T17:56:24.103Z,12.53
2023-05-08T17:58:52.560Z,12.44
2023-05-08T18:01:20.321Z,12.41
2023-05-08T18:03:50.830Z,12.32
2023-05-08T18:06:18.324Z,12.21
2023-05-08T18:08:45.997Z,12.09
2023-05-08T18:11:30.579Z,12.00
2023-05-08T18:13:57.282Z,11.88
2023-05-08T18:16:24.226Z,11.97
2023-05-08T18:18:51.961Z,11.96
2023-05-08T18:21:18.852Z,11.90
2023-05-08T18:23:45.643Z,11.86
2023-05-08T18:26:16.385Z,11.77
2023-05-08T18:28:44.218Z,11.72
2023-05-08T18:31:11.884Z,11.73
2023-05-08T18:33:39.205Z,11.66
2023-05-08T18:36:07.418Z,11.52
2023-05-08T18:38:37.414Z,11.46
2023-05-08T18:41:07.380Z,11.31
2023-05-08T18:43:37.685Z,11.38
2023-05-08T18:46:12.698Z,11.26
2023-05-08T18:48:41.158Z,11.36
2023-05-08T18:51:08.043Z,11.38
2023-05-08T18:53:38.291Z,11.29
2023-05-08T18:56:06.126Z,11.25
2023-05-08T18:58:32.951Z,11.32
2023-05-08T19:00:59.818Z,11.37
2023-05-08T19:03:26.640Z,11.38
2023-05-08T19:05:55.164Z,11.40
2023-05-08T19:08:22.271Z,11.34
2023-05-08T19:10:49.145Z,11.28
2023-05-08T19:13:16.112Z,11.22
2023-05-08T19:15:42.913Z,11.24
2023-05-08T19:18:09.740Z,11.26
2023-05-08T19:20:36.518Z,11.24
2023-05-08T19:23:03.251Z,11.24
2023-05-08T19:25:30.378Z,11.16
2023-05-08T19:28:00.549Z,11.12
2023-05-08T19:30:27.540Z,11.15
2023-05-08T19:32:54.732Z,11.22
2023-05-08T19:35:22.204Z,11.23
2023-05-08T19:37:49.323Z,11.24
2023-05-08T19:40:16.526Z,11.19
2023-05-08T19:42:46.386Z,11.18
2023-05-08T19:45:13.464Z,11.14
2023-05-08T19:47:40.215Z,11.13
2023-05-08T19:50:07.459Z,11.10
2023-05-08T19:52:34.652Z,11.10
2023-05-08T19:55:02.006Z,11.02
2023-05-08T19:57:29.022Z,11.03
2023-05-08T19:59:56.282Z,10.98
2023-05-08T20:02:23.328Z,10.89
2023-05-08T20:05:14.220Z,10.84
2023-05-08T20:07:36.702Z,10.76
2023-05-08T20:10:03.648Z,10.69
2023-05-08T20:12:30.802Z,10.65
2023-05-08T20:14:57.573Z,10.55
2023-05-08T20:17:24.324Z,10.42
2023-05-08T20:19:51.084Z,10.35
2023-05-08T20:22:17.804Z,10.27
2023-05-08T20:24:44.488Z,10.16
2023-05-08T20:27:11.113Z,10.08
2023-05-08T20:29:37.832Z,10.00
2023-05-08T20:32:04.510Z,9.96
2023-05-08T20:34:35.044Z,9.92
2023-05-08T20:37:03.818Z,9.84
2023-05-08T20:39:30.638Z,9.72
2023-05-08T20:41:57.367Z,9.54
2023-05-08T20:44:24.208Z,9.54
2023-05-08T20:46:52.098Z,9.48
2023-05-08T20:49:18.914Z,9.28
2023-05-08T20:51:45.835Z,9.21
2023-05-08T20:54:12.603Z,9.22
2023-05-08T20:56:39.319Z,9.21
2023-05-08T20:59:05.988Z,9.19
2023-05-08T21:01:32.838Z,9.17
2023-05-08T21:03:59.655Z,9.19
2023-05-08T21:06:26.432Z,9.17
2023-05-08T21:08:53.297Z,9.15
2023-05-08T21:11:20.054Z,9.15
2023-05-08T21:13:46.976Z,9.12
2023-05-08T21:16:13.786Z,9.16
2023-05-08T21:18:40.581Z,9.14
2023-05-08T21:21:18.141Z,9.18
2023-05-08T21:23:44.907Z,9.14
2023-05-08T21:26:12.008Z,9.13
2023-05-08T21:28:39.445Z,9.08
2023-05-08T21:31:09.064Z,9.05
2023-05-08T21:33:39.131Z,9.01
2023-05-08T21:36:08.750Z,8.93
2023-05-08T21:38:35.670Z,8.97
2023-05-08T21:41:14.049Z,8.73
2023-05-08T21:43:41.718Z,8.77
2023-05-08T21:46:09.471Z,8.79
2023-05-08T21:48:36.977Z,8.83
2023-05-08T21:51:05.869Z,8.88
2023-05-08T21:53:32.831Z,8.91
2023-05-08T21:55:59.872Z,8.92
2023-05-08T21:58:26.529Z,8.95
2023-05-08T22:00:53.215Z,8.95
2023-05-08T22:03:20.017Z,8.96
2023-05-08T22:05:46.893Z,8.95
2023-05-08T22:08:13.699Z,8.89
2023-05-08T22:10:40.600Z,8.87
2023-05-08T22:13:07.596Z,8.94
2023-05-08T22:15:34.610Z,8.97
2023-05-08T22:18:02.896Z,8.98
2023-05-08T22:20:30.549Z,9.01
2023-05-08T22:22:57.323Z,8.97
2023-05-08T22:25:25.863Z,8.99
2023-05-08T22:27:52.589Z,9.00
2023-05-08T22:30:19.430Z,8.96
2023-05-08T22:32:53.694Z,8.96
2023-05-08T22:35:24.884Z,8.90
2023-05-08T22:37:52.678Z,8.91
2023-05-08T22:40:20.127Z,8.74
2023-05-08T22:42:47.523Z,8.50
2023-05-08T22:45:14.909Z,8.43
2023-05-08T22:47:42.261Z,8.30
2023-05-08T22:50:09.458Z,8.19
2023-05-08T22:52:37.024Z,8.29
2023-05-08T22:55:04.053Z,8.32
2023-05-08T22:57:31.058Z,8.38
2023-05-08T22:59:57.731Z,8.41
2023-05-08T23:02:24.453Z,8.47
2023-05-08T23:04:51.130Z,8.51
2023-05-08T23:07:17.963Z,8.43
2023-05-08T23:09:44.686Z,8.48
2023-05-08T23:12:11.377Z,8.56
2023-05-08T23:14:37.999Z,8.52
2023-05-08T23:17:04.862Z,8.51
2023-05-08T23:19:31.585Z,8.42
2023-05-08T23:21:58.390Z,8.47
2023-05-08T23:24:26.039Z,8.47
2023-05-08T23:26:53.229Z,8.52
2023-05-08T23:29:20.398Z,8.46
2023-05-08T23:31:47.212Z,8.47
2023-05-08T23:34:13.985Z,8.51
2023-05-08T23:36:40.689Z,8.55
2023-05-08T23:39:07.451Z,8.56
2023-05-08T23:41:34.188Z,8.59
2023-05-08T23:44:01.221Z,8.60
2023-05-08T23:46:27.992Z,8.63
2023-05-08T23:48:54.695Z,8.59
2023-05-08T23:51:21.683Z,8.63
2023-05-08T23:53:49.079Z,8.61
2023-05-08T23:56:15.984Z,8.48
2023-05-08T23:58:42.717Z,8.51
